SWA2815 KDEN-KLAS
Flight info
| Callsign | SWA2815 |
|---|---|
| Flight time | 1h 25m |
| Altitude | 36000 |
| Route | CONNR8 WERNR ZAKRY CHESZ GGAPP CHOWW4 |
| Aircraft | B737/M-SADE2E3GIJ4RWZ/LB1D1 |
Departure
| Time | 2026-05-06 21:05 |
|---|---|
| Airport | Denver International Airport (KDEN) |
Arrival
| Time | 2026-05-06 22:30 |
|---|---|
| Airport | Harry Reid International Airport (KLAS) |
| Time | Latitude | Longitude | Altitude | Speed | Heading |
|---|---|---|---|---|---|
| 2026-05-06 20:32 | 39.86250 | -104.66798 | 5376 ft | 0 kts | 0° |
| 2026-05-06 20:46 | 39.86237 | -104.66798 | 5372 ft | 4 kts | 358° |
| 2026-05-06 20:46 | 39.86212 | -104.66797 | 5371 ft | 4 kts | 353° |
| 2026-05-06 20:47 | 39.86191 | -104.66785 | 5371 ft | 4 kts | 297° |
| 2026-05-06 20:47 | 39.86185 | -104.66758 | 5371 ft | 1 kts | 271° |
| 2026-05-06 20:47 | 39.86185 | -104.66752 | 5371 ft | 0 kts | 271° |
| 2026-05-06 20:56 | 39.86183 | -104.66802 | 5376 ft | 11 kts | 250° |
| 2026-05-06 20:56 | 39.86136 | -104.66886 | 5374 ft | 12 kts | 232° |
| 2026-05-06 20:56 | 39.86088 | -104.66968 | 5376 ft | 11 kts | 232° |
| 2026-05-06 20:57 | 39.86061 | -104.67064 | 5375 ft | 12 kts | 269° |
| 2026-05-06 20:57 | 39.86062 | -104.67182 | 5378 ft | 14 kts | 270° |
| 2026-05-06 20:57 | 39.86063 | -104.67310 | 5376 ft | 15 kts | 270° |
| 2026-05-06 20:57 | 39.86063 | -104.67448 | 5378 ft | 16 kts | 269° |
| 2026-05-06 20:58 | 39.86065 | -104.67591 | 5374 ft | 16 kts | 273° |
| 2026-05-06 20:58 | 39.86069 | -104.67731 | 5378 ft | 15 kts | 268° |
| 2026-05-06 20:58 | 39.86066 | -104.67865 | 5378 ft | 15 kts | 270° |
| 2026-05-06 20:58 | 39.86068 | -104.67996 | 5378 ft | 14 kts | 270° |
| 2026-05-06 20:59 | 39.86067 | -104.68117 | 5378 ft | 11 kts | 261° |
| 2026-05-06 20:59 | 39.86036 | -104.68211 | 5373 ft | 13 kts | 259° |
| 2026-05-06 20:59 | 39.86030 | -104.68345 | 5372 ft | 17 kts | 268° |
| 2026-05-06 20:59 | 39.86016 | -104.68494 | 5369 ft | 16 kts | 228° |
| 2026-05-06 21:00 | 39.85911 | -104.68509 | 5366 ft | 15 kts | 181° |
| 2026-05-06 21:00 | 39.85807 | -104.68511 | 5369 ft | 15 kts | 181° |
| 2026-05-06 21:00 | 39.85709 | -104.68512 | 5369 ft | 14 kts | 180° |
| 2026-05-06 21:00 | 39.85614 | -104.68513 | 5370 ft | 13 kts | 180° |
| 2026-05-06 21:01 | 39.85523 | -104.68513 | 5372 ft | 13 kts | 180° |
| 2026-05-06 21:01 | 39.85434 | -104.68515 | 5380 ft | 13 kts | 180° |
| 2026-05-06 21:01 | 39.85348 | -104.68515 | 5374 ft | 12 kts | 180° |
| 2026-05-06 21:01 | 39.85264 | -104.68516 | 5375 ft | 12 kts | 180° |
| 2026-05-06 21:02 | 39.85207 | -104.68575 | 5374 ft | 13 kts | 256° |
| 2026-05-06 21:02 | 39.85203 | -104.68708 | 5367 ft | 16 kts | 270° |
| 2026-05-06 21:02 | 39.85200 | -104.68865 | 5361 ft | 19 kts | 268° |
| 2026-05-06 21:02 | 39.85196 | -104.69047 | 5353 ft | 21 kts | 268° |
| 2026-05-06 21:03 | 39.85197 | -104.69252 | 5344 ft | 24 kts | 271° |
| 2026-05-06 21:03 | 39.85200 | -104.69470 | 5335 ft | 23 kts | 270° |
| 2026-05-06 21:03 | 39.85202 | -104.69611 | 5336 ft | 8 kts | 271° |
| 2026-05-06 21:03 | 39.85217 | -104.69659 | 5339 ft | 5 kts | 342° |
| 2026-05-06 21:04 | 39.85241 | -104.69659 | 5335 ft | 0 kts | 1° |
| 2026-05-06 21:04 | 39.85347 | -104.69657 | 5336 ft | 48 kts | 1° |
| 2026-05-06 21:04 | 39.85929 | -104.69650 | 5337 ft | 118 kts | 0° |
| 2026-05-06 21:04 | 39.86948 | -104.69638 | 5372 ft | 170 kts | 0° |
| 2026-05-06 21:05 | 39.88156 | -104.69636 | 6163 ft | 166 kts | 360° |
| 2026-05-06 21:05 | 39.89299 | -104.69627 | 7126 ft | 164 kts | 1° |
| 2026-05-06 21:05 | 39.90495 | -104.69884 | 7524 ft | 193 kts | 326° |
| 2026-05-06 21:05 | 39.91316 | -104.71342 | 7814 ft | 219 kts | 282° |
| 2026-05-06 21:06 | 39.91139 | -104.73408 | 8074 ft | 249 kts | 245° |
| 2026-05-06 21:06 | 39.90281 | -104.75475 | 8469 ft | 273 kts | 240° |
| 2026-05-06 21:06 | 39.89334 | -104.77654 | 9335 ft | 278 kts | 241° |
| 2026-05-06 21:06 | 39.88400 | -104.79885 | 9912 ft | 285 kts | 242° |
| 2026-05-06 21:07 | 39.87486 | -104.82174 | 10862 ft | 285 kts | 244° |
| 2026-05-06 21:07 | 39.86590 | -104.84489 | 11787 ft | 288 kts | 245° |
| 2026-05-06 21:07 | 39.85695 | -104.86832 | 12689 ft | 292 kts | 245° |
| 2026-05-06 21:07 | 39.84789 | -104.89214 | 13616 ft | 295 kts | 246° |
| 2026-05-06 21:08 | 39.83966 | -104.91665 | 14483 ft | 296 kts | 255° |
| 2026-05-06 21:08 | 39.83443 | -104.94249 | 15349 ft | 297 kts | 259° |
| 2026-05-06 21:08 | 39.82967 | -104.96869 | 16237 ft | 298 kts | 259° |
| 2026-05-06 21:08 | 39.82472 | -104.99491 | 17175 ft | 300 kts | 259° |
| 2026-05-06 21:09 | 39.81966 | -105.02103 | 18145 ft | 302 kts | 259° |
| 2026-05-06 21:09 | 39.81440 | -105.04758 | 19037 ft | 305 kts | 259° |
| 2026-05-06 21:09 | 39.80900 | -105.07457 | 19775 ft | 312 kts | 259° |
| 2026-05-06 21:09 | 39.80345 | -105.10220 | 20526 ft | 318 kts | 259° |
| 2026-05-06 21:10 | 39.79780 | -105.13024 | 21311 ft | 323 kts | 259° |
| 2026-05-06 21:10 | 39.79205 | -105.15878 | 22084 ft | 329 kts | 259° |
| 2026-05-06 21:10 | 39.78619 | -105.18782 | 22849 ft | 335 kts | 259° |
| 2026-05-06 21:10 | 39.78023 | -105.21731 | 23602 ft | 340 kts | 259° |
| 2026-05-06 21:11 | 39.77415 | -105.24733 | 24236 ft | 347 kts | 259° |
| 2026-05-06 21:11 | 39.76803 | -105.27755 | 24801 ft | 354 kts | 260° |
| 2026-05-06 21:11 | 39.76167 | -105.30882 | 25284 ft | 364 kts | 261° |
| 2026-05-06 21:11 | 39.75511 | -105.34098 | 25782 ft | 372 kts | 261° |
| 2026-05-06 21:12 | 39.74843 | -105.37370 | 26385 ft | 377 kts | 262° |
| 2026-05-06 21:12 | 39.74164 | -105.40696 | 26942 ft | 384 kts | 262° |
| 2026-05-06 21:12 | 39.73471 | -105.44083 | 27444 ft | 393 kts | 262° |
| 2026-05-06 21:12 | 39.72753 | -105.47600 | 27544 ft | 412 kts | 262° |
| 2026-05-06 21:13 | 39.72002 | -105.51270 | 27688 ft | 428 kts | 262° |
| 2026-05-06 21:13 | 39.71222 | -105.55052 | 28078 ft | 437 kts | 262° |
| 2026-05-06 21:13 | 39.70441 | -105.58828 | 28614 ft | 441 kts | 262° |
| 2026-05-06 21:13 | 39.69648 | -105.62701 | 29135 ft | 447 kts | 263° |
| 2026-05-06 21:14 | 39.68851 | -105.66631 | 29477 ft | 453 kts | 265° |
| 2026-05-06 21:14 | 39.68183 | -105.70633 | 29895 ft | 456 kts | 268° |
| 2026-05-06 21:14 | 39.67628 | -105.74701 | 30321 ft | 459 kts | 269° |
| 2026-05-06 21:14 | 39.67107 | -105.78798 | 30803 ft | 460 kts | 269° |
| 2026-05-06 21:15 | 39.66588 | -105.82890 | 31403 ft | 459 kts | 269° |
| 2026-05-06 21:15 | 39.66058 | -105.86975 | 31914 ft | 460 kts | 268° |
| 2026-05-06 21:15 | 39.65513 | -105.91080 | 32331 ft | 462 kts | 268° |
| 2026-05-06 21:15 | 39.64956 | -105.95193 | 32709 ft | 464 kts | 267° |
| 2026-05-06 21:16 | 39.64396 | -105.99263 | 33161 ft | 464 kts | 266° |
| 2026-05-06 21:16 | 39.63827 | -106.03371 | 33718 ft | 462 kts | 267° |
| 2026-05-06 21:16 | 39.63255 | -106.07468 | 34208 ft | 460 kts | 267° |
| 2026-05-06 21:16 | 39.62685 | -106.11529 | 34716 ft | 456 kts | 266° |
| 2026-05-06 21:17 | 39.62121 | -106.15548 | 35300 ft | 450 kts | 266° |
| 2026-05-06 21:17 | 39.61563 | -106.19517 | 35857 ft | 445 kts | 265° |
| 2026-05-06 21:17 | 39.61011 | -106.23435 | 36042 ft | 438 kts | 265° |
| 2026-05-06 21:17 | 39.60470 | -106.27270 | 36029 ft | 426 kts | 265° |
| 2026-05-06 21:18 | 39.59941 | -106.31014 | 36054 ft | 420 kts | 265° |
| 2026-05-06 21:18 | 39.58903 | -106.38389 | 36050 ft | 419 kts | 266° |
| 2026-05-06 21:19 | 39.57852 | -106.45813 | 36080 ft | 420 kts | 266° |
| 2026-05-06 21:19 | 39.56786 | -106.53290 | 36066 ft | 424 kts | 266° |
| 2026-05-06 21:20 | 39.55703 | -106.60837 | 36060 ft | 427 kts | 266° |
| 2026-05-06 21:20 | 39.54537 | -106.68325 | 36045 ft | 432 kts | 258° |
| 2026-05-06 21:21 | 39.52344 | -106.75588 | 36052 ft | 434 kts | 253° |
| 2026-05-06 21:21 | 39.49955 | -106.82752 | 36076 ft | 431 kts | 253° |
| 2026-05-06 21:22 | 39.47645 | -106.89909 | 36137 ft | 431 kts | 254° |
| 2026-05-06 21:22 | 39.45388 | -106.97057 | 36112 ft | 432 kts | 255° |
| 2026-05-06 21:23 | 39.43119 | -107.04253 | 36104 ft | 433 kts | 255° |
| 2026-05-06 21:23 | 39.40836 | -107.11466 | 36090 ft | 433 kts | 255° |
| 2026-05-06 21:24 | 39.38546 | -107.18682 | 36078 ft | 435 kts | 255° |
| 2026-05-06 21:24 | 39.36075 | -107.25871 | 36078 ft | 439 kts | 251° |
| 2026-05-06 21:25 | 39.33417 | -107.32940 | 36054 ft | 441 kts | 251° |
| 2026-05-06 21:25 | 39.30727 | -107.40056 | 36023 ft | 441 kts | 251° |
| 2026-05-06 21:26 | 39.28060 | -107.47165 | 36043 ft | 439 kts | 251° |
| 2026-05-06 21:26 | 39.25407 | -107.54261 | 36054 ft | 438 kts | 251° |
| 2026-05-06 21:27 | 39.22777 | -107.61297 | 36050 ft | 438 kts | 251° |
| 2026-05-06 21:27 | 39.20124 | -107.68375 | 36054 ft | 439 kts | 251° |
| 2026-05-06 21:28 | 39.17463 | -107.75456 | 36008 ft | 439 kts | 251° |
| 2026-05-06 21:28 | 39.14798 | -107.82528 | 36034 ft | 439 kts | 251° |
| 2026-05-06 21:29 | 39.12130 | -107.89593 | 36048 ft | 439 kts | 251° |
| 2026-05-06 21:29 | 39.09474 | -107.96610 | 36054 ft | 439 kts | 251° |
| 2026-05-06 21:30 | 39.06793 | -108.03674 | 36058 ft | 439 kts | 251° |
| 2026-05-06 21:30 | 39.04106 | -108.10739 | 36063 ft | 439 kts | 251° |
| 2026-05-06 21:31 | 39.01416 | -108.17794 | 36070 ft | 439 kts | 251° |
| 2026-05-06 21:31 | 38.98728 | -108.24824 | 36079 ft | 437 kts | 251° |
| 2026-05-06 21:32 | 38.96059 | -108.31793 | 36091 ft | 437 kts | 251° |
| 2026-05-06 21:32 | 38.92024 | -108.42303 | 36103 ft | 438 kts | 250° |
| 2026-05-06 21:33 | 38.89325 | -108.49312 | 36094 ft | 438 kts | 250° |
| 2026-05-06 21:33 | 38.86613 | -108.56337 | 36084 ft | 440 kts | 250° |
| 2026-05-06 21:34 | 38.83907 | -108.63327 | 36071 ft | 441 kts | 250° |
| 2026-05-06 21:34 | 38.81173 | -108.70374 | 36048 ft | 441 kts | 250° |
| 2026-05-06 21:35 | 38.78439 | -108.77403 | 36052 ft | 440 kts | 250° |
| 2026-05-06 21:35 | 38.75715 | -108.84390 | 36060 ft | 438 kts | 250° |
| 2026-05-06 21:36 | 38.72993 | -108.91365 | 36067 ft | 439 kts | 250° |
| 2026-05-06 21:36 | 38.70273 | -108.98312 | 36052 ft | 439 kts | 250° |
| 2026-05-06 21:37 | 38.67528 | -109.05306 | 36071 ft | 440 kts | 250° |
| 2026-05-06 21:37 | 38.64786 | -109.12297 | 36026 ft | 440 kts | 250° |
| 2026-05-06 21:38 | 38.62031 | -109.19280 | 36057 ft | 440 kts | 250° |
| 2026-05-06 21:38 | 38.59270 | -109.26261 | 36049 ft | 440 kts | 250° |
| 2026-05-06 21:39 | 38.56523 | -109.33197 | 36069 ft | 441 kts | 250° |
| 2026-05-06 21:39 | 38.53753 | -109.40176 | 36064 ft | 440 kts | 250° |
| 2026-05-06 21:40 | 38.50981 | -109.47146 | 36019 ft | 440 kts | 250° |
| 2026-05-06 21:40 | 38.48204 | -109.54110 | 36046 ft | 440 kts | 249° |
| 2026-05-06 21:41 | 38.45444 | -109.61021 | 36048 ft | 440 kts | 249° |
| 2026-05-06 21:41 | 38.42658 | -109.67982 | 36041 ft | 441 kts | 249° |
| 2026-05-06 21:42 | 38.39863 | -109.74943 | 36031 ft | 441 kts | 249° |
| 2026-05-06 21:42 | 38.37069 | -109.81886 | 36008 ft | 440 kts | 249° |
| 2026-05-06 21:43 | 38.34274 | -109.88823 | 36030 ft | 440 kts | 249° |
| 2026-05-06 21:43 | 38.31492 | -109.95716 | 36020 ft | 441 kts | 249° |
| 2026-05-06 21:44 | 38.28680 | -110.02662 | 36031 ft | 442 kts | 249° |
| 2026-05-06 21:44 | 38.26079 | -110.09704 | 36018 ft | 438 kts | 253° |
| 2026-05-06 21:45 | 38.23659 | -110.16830 | 35991 ft | 439 kts | 253° |
| 2026-05-06 21:45 | 38.21253 | -110.23896 | 35998 ft | 438 kts | 252° |
| 2026-05-06 21:46 | 38.18805 | -110.30983 | 36014 ft | 437 kts | 252° |
| 2026-05-06 21:46 | 38.16345 | -110.38052 | 36001 ft | 437 kts | 252° |
| 2026-05-06 21:47 | 38.13874 | -110.45126 | 36002 ft | 439 kts | 252° |
| 2026-05-06 21:47 | 38.11406 | -110.52170 | 35997 ft | 439 kts | 252° |
| 2026-05-06 21:48 | 38.08913 | -110.59273 | 35981 ft | 441 kts | 252° |
| 2026-05-06 21:48 | 38.06413 | -110.66377 | 35971 ft | 441 kts | 252° |
| 2026-05-06 21:49 | 38.03906 | -110.73486 | 35967 ft | 442 kts | 252° |
| 2026-05-06 21:49 | 38.01395 | -110.80587 | 35958 ft | 441 kts | 252° |
| 2026-05-06 21:50 | 37.98901 | -110.87622 | 35937 ft | 440 kts | 252° |
| 2026-05-06 21:50 | 37.96398 | -110.94669 | 35943 ft | 438 kts | 251° |
| 2026-05-06 21:51 | 37.93892 | -111.01708 | 35944 ft | 438 kts | 252° |
| 2026-05-06 21:51 | 37.91396 | -111.08703 | 35942 ft | 438 kts | 251° |
| 2026-05-06 21:52 | 37.88928 | -111.15603 | 35901 ft | 438 kts | 251° |
| 2026-05-06 21:52 | 37.86411 | -111.22624 | 35919 ft | 438 kts | 251° |
| 2026-05-06 21:53 | 37.83887 | -111.29648 | 35918 ft | 438 kts | 251° |
| 2026-05-06 21:53 | 37.81355 | -111.36680 | 35813 ft | 441 kts | 251° |
| 2026-05-06 21:54 | 37.80077 | -111.40224 | 35557 ft | 444 kts | 251° |
| 2026-05-06 21:54 | 37.78812 | -111.43727 | 35322 ft | 443 kts | 251° |
| 2026-05-06 21:54 | 37.77531 | -111.47264 | 35076 ft | 442 kts | 251° |
| 2026-05-06 21:54 | 37.76251 | -111.50797 | 34845 ft | 442 kts | 251° |
| 2026-05-06 21:55 | 37.74974 | -111.54317 | 34611 ft | 442 kts | 251° |
| 2026-05-06 21:55 | 37.73693 | -111.57846 | 34370 ft | 441 kts | 251° |
| 2026-05-06 21:55 | 37.72412 | -111.61372 | 34144 ft | 441 kts | 251° |
| 2026-05-06 21:55 | 37.71133 | -111.64888 | 33891 ft | 442 kts | 251° |
| 2026-05-06 21:56 | 37.69844 | -111.68427 | 33637 ft | 443 kts | 251° |
| 2026-05-06 21:56 | 37.68557 | -111.71960 | 33390 ft | 443 kts | 251° |
| 2026-05-06 21:56 | 37.67283 | -111.75449 | 33166 ft | 444 kts | 251° |
| 2026-05-06 21:56 | 37.65988 | -111.78994 | 32933 ft | 445 kts | 251° |
| 2026-05-06 21:57 | 37.64692 | -111.82537 | 32678 ft | 445 kts | 251° |
| 2026-05-06 21:57 | 37.63393 | -111.86083 | 32445 ft | 446 kts | 250° |
| 2026-05-06 21:57 | 37.62092 | -111.89629 | 32217 ft | 446 kts | 250° |
| 2026-05-06 21:57 | 37.60797 | -111.93151 | 32106 ft | 437 kts | 250° |
| 2026-05-06 21:58 | 37.59530 | -111.96585 | 32099 ft | 424 kts | 251° |
| 2026-05-06 21:58 | 37.58305 | -111.99904 | 32084 ft | 411 kts | 251° |
| 2026-05-06 21:58 | 37.55938 | -112.06347 | 32133 ft | 408 kts | 251° |
| 2026-05-06 21:59 | 37.53537 | -112.12864 | 32131 ft | 415 kts | 250° |
| 2026-05-06 21:59 | 37.50621 | -112.19158 | 32078 ft | 417 kts | 241° |
| 2026-05-06 22:00 | 37.47367 | -112.25184 | 32054 ft | 416 kts | 240° |
| 2026-05-06 22:00 | 37.44147 | -112.31219 | 32007 ft | 415 kts | 241° |
| 2026-05-06 22:01 | 37.40969 | -112.37297 | 31965 ft | 416 kts | 242° |
| 2026-05-06 22:01 | 37.37824 | -112.43346 | 31930 ft | 417 kts | 242° |
| 2026-05-06 22:02 | 37.34648 | -112.49446 | 31936 ft | 417 kts | 241° |
| 2026-05-06 22:02 | 37.31462 | -112.55552 | 31950 ft | 419 kts | 241° |
| 2026-05-06 22:03 | 37.28259 | -112.61679 | 31968 ft | 420 kts | 241° |
| 2026-05-06 22:03 | 37.25039 | -112.67829 | 31959 ft | 422 kts | 241° |
| 2026-05-06 22:04 | 37.21811 | -112.73975 | 31965 ft | 422 kts | 241° |
| 2026-05-06 22:04 | 37.18577 | -112.80118 | 31985 ft | 422 kts | 240° |
| 2026-05-06 22:05 | 37.15372 | -112.86197 | 32040 ft | 421 kts | 240° |
| 2026-05-06 22:05 | 37.12146 | -112.92308 | 32079 ft | 420 kts | 240° |
| 2026-05-06 22:06 | 37.08923 | -112.98408 | 32135 ft | 420 kts | 240° |
| 2026-05-06 22:06 | 37.05686 | -113.04520 | 32118 ft | 421 kts | 240° |
| 2026-05-06 22:07 | 37.02457 | -113.10599 | 32126 ft | 419 kts | 240° |
| 2026-05-06 22:07 | 36.99260 | -113.16611 | 32114 ft | 418 kts | 240° |
| 2026-05-06 22:08 | 36.96027 | -113.22684 | 31668 ft | 420 kts | 240° |
| 2026-05-06 22:08 | 36.94406 | -113.25723 | 31226 ft | 420 kts | 239° |
| 2026-05-06 22:08 | 36.92784 | -113.28761 | 30740 ft | 421 kts | 239° |
| 2026-05-06 22:09 | 36.91158 | -113.31804 | 30250 ft | 421 kts | 239° |
| 2026-05-06 22:09 | 36.89533 | -113.34842 | 29739 ft | 420 kts | 239° |
| 2026-05-06 22:09 | 36.87915 | -113.37864 | 29268 ft | 416 kts | 239° |
| 2026-05-06 22:09 | 36.86311 | -113.40859 | 28809 ft | 413 kts | 239° |
| 2026-05-06 22:10 | 36.85258 | -113.42822 | 28520 ft | 410 kts | 239° |
| 2026-05-06 22:10 | 36.83678 | -113.45770 | 28129 ft | 406 kts | 239° |
| 2026-05-06 22:10 | 36.81606 | -113.49627 | 27556 ft | 402 kts | 239° |
| 2026-05-06 22:10 | 36.80055 | -113.52515 | 27203 ft | 397 kts | 239° |
| 2026-05-06 22:11 | 36.78526 | -113.55361 | 26809 ft | 394 kts | 239° |
| 2026-05-06 22:11 | 36.77008 | -113.58191 | 26400 ft | 391 kts | 239° |
| 2026-05-06 22:11 | 36.76009 | -113.60052 | 26123 ft | 390 kts | 239° |
| 2026-05-06 22:11 | 36.74509 | -113.62846 | 25704 ft | 387 kts | 239° |
| 2026-05-06 22:12 | 36.73009 | -113.65637 | 25291 ft | 385 kts | 239° |
| 2026-05-06 22:12 | 36.71520 | -113.68405 | 24865 ft | 384 kts | 239° |
| 2026-05-06 22:12 | 36.70036 | -113.71163 | 24450 ft | 382 kts | 239° |
| 2026-05-06 22:12 | 36.68081 | -113.74792 | 23890 ft | 380 kts | 239° |
| 2026-05-06 22:13 | 36.66607 | -113.77524 | 23437 ft | 379 kts | 239° |
| 2026-05-06 22:13 | 36.65614 | -113.79365 | 23106 ft | 378 kts | 239° |
| 2026-05-06 22:13 | 36.64153 | -113.82070 | 22658 ft | 375 kts | 239° |
| 2026-05-06 22:13 | 36.62704 | -113.84752 | 22219 ft | 372 kts | 239° |
| 2026-05-06 22:14 | 36.61285 | -113.87376 | 21805 ft | 369 kts | 239° |
| 2026-05-06 22:14 | 36.59858 | -113.90010 | 21380 ft | 366 kts | 239° |
| 2026-05-06 22:14 | 36.58432 | -113.92611 | 20986 ft | 363 kts | 237° |
| 2026-05-06 22:14 | 36.56931 | -113.95112 | 20670 ft | 358 kts | 235° |
| 2026-05-06 22:15 | 36.55404 | -113.97549 | 20258 ft | 356 kts | 234° |
| 2026-05-06 22:15 | 36.53881 | -113.99960 | 19872 ft | 353 kts | 234° |
| 2026-05-06 22:15 | 36.52370 | -114.02359 | 19458 ft | 351 kts | 234° |
| 2026-05-06 22:15 | 36.50876 | -114.04744 | 19055 ft | 350 kts | 234° |
| 2026-05-06 22:16 | 36.49384 | -114.07136 | 18591 ft | 350 kts | 234° |
| 2026-05-06 22:16 | 36.47894 | -114.09528 | 18163 ft | 349 kts | 234° |
| 2026-05-06 22:16 | 36.46409 | -114.11914 | 17676 ft | 348 kts | 234° |
| 2026-05-06 22:16 | 36.44935 | -114.14284 | 17243 ft | 346 kts | 234° |
| 2026-05-06 22:17 | 36.43471 | -114.16636 | 16817 ft | 343 kts | 234° |
| 2026-05-06 22:17 | 36.42034 | -114.18942 | 16408 ft | 341 kts | 234° |
| 2026-05-06 22:17 | 36.40589 | -114.21260 | 15992 ft | 339 kts | 234° |
| 2026-05-06 22:17 | 36.39142 | -114.23574 | 15566 ft | 338 kts | 234° |
| 2026-05-06 22:18 | 36.37695 | -114.25857 | 15180 ft | 336 kts | 234° |
| 2026-05-06 22:18 | 36.36247 | -114.28124 | 14772 ft | 334 kts | 233° |
| 2026-05-06 22:18 | 36.34805 | -114.30380 | 14352 ft | 334 kts | 233° |
| 2026-05-06 22:18 | 36.33364 | -114.32636 | 13930 ft | 334 kts | 233° |
| 2026-05-06 22:19 | 36.31924 | -114.34891 | 13481 ft | 333 kts | 233° |
| 2026-05-06 22:19 | 36.30492 | -114.37134 | 13047 ft | 331 kts | 233° |
| 2026-05-06 22:19 | 36.29064 | -114.39370 | 12627 ft | 329 kts | 233° |
| 2026-05-06 22:19 | 36.27650 | -114.41581 | 12234 ft | 326 kts | 233° |
| 2026-05-06 22:20 | 36.26261 | -114.43745 | 11824 ft | 325 kts | 233° |
| 2026-05-06 22:20 | 36.24858 | -114.45931 | 11415 ft | 322 kts | 234° |
| 2026-05-06 22:20 | 36.23455 | -114.48088 | 11020 ft | 320 kts | 233° |
| 2026-05-06 22:20 | 36.22062 | -114.50223 | 10618 ft | 318 kts | 234° |
| 2026-05-06 22:21 | 36.20670 | -114.52351 | 10215 ft | 316 kts | 234° |
| 2026-05-06 22:21 | 36.19299 | -114.54449 | 9954 ft | 309 kts | 234° |
| 2026-05-06 22:21 | 36.17969 | -114.56487 | 9622 ft | 304 kts | 234° |
| 2026-05-06 22:21 | 36.16640 | -114.58521 | 9217 ft | 303 kts | 234° |
| 2026-05-06 22:22 | 36.15325 | -114.60534 | 8890 ft | 299 kts | 234° |
| 2026-05-06 22:22 | 36.14035 | -114.62502 | 8734 ft | 290 kts | 234° |
| 2026-05-06 22:22 | 36.12779 | -114.64421 | 8583 ft | 285 kts | 234° |
| 2026-05-06 22:22 | 36.11551 | -114.66296 | 8432 ft | 285 kts | 233° |
| 2026-05-06 22:23 | 36.10319 | -114.68174 | 8277 ft | 277 kts | 233° |
| 2026-05-06 22:23 | 36.09124 | -114.69993 | 8130 ft | 268 kts | 233° |
| 2026-05-06 22:23 | 36.07977 | -114.71767 | 8003 ft | 258 kts | 239° |
| 2026-05-06 22:23 | 36.07347 | -114.73745 | 7777 ft | 243 kts | 265° |
| 2026-05-06 22:24 | 36.07270 | -114.75776 | 7528 ft | 232 kts | 274° |
| 2026-05-06 22:24 | 36.07334 | -114.77723 | 7284 ft | 222 kts | 277° |
| 2026-05-06 22:24 | 36.07406 | -114.79601 | 7028 ft | 215 kts | 274° |
| 2026-05-06 22:24 | 36.07432 | -114.81420 | 6768 ft | 209 kts | 273° |
| 2026-05-06 22:25 | 36.07434 | -114.83167 | 6530 ft | 202 kts | 272° |
| 2026-05-06 22:25 | 36.07429 | -114.84868 | 6319 ft | 195 kts | 272° |
| 2026-05-06 22:25 | 36.07425 | -114.86521 | 6079 ft | 190 kts | 272° |
| 2026-05-06 22:25 | 36.07421 | -114.88141 | 5843 ft | 187 kts | 272° |
| 2026-05-06 22:26 | 36.07415 | -114.89732 | 5582 ft | 182 kts | 271° |
| 2026-05-06 22:26 | 36.07409 | -114.91276 | 5351 ft | 178 kts | 271° |
| 2026-05-06 22:26 | 36.07404 | -114.92802 | 5134 ft | 177 kts | 272° |
| 2026-05-06 22:26 | 36.07401 | -114.94323 | 4903 ft | 177 kts | 271° |
| 2026-05-06 22:27 | 36.07396 | -114.95835 | 4676 ft | 175 kts | 272° |
| 2026-05-06 22:27 | 36.07393 | -114.97323 | 4479 ft | 176 kts | 272° |
| 2026-05-06 22:27 | 36.07390 | -114.98844 | 4236 ft | 177 kts | 272° |
| 2026-05-06 22:27 | 36.07386 | -115.00336 | 4018 ft | 169 kts | 272° |
| 2026-05-06 22:28 | 36.07383 | -115.01750 | 3806 ft | 164 kts | 272° |
| 2026-05-06 22:28 | 36.07381 | -115.03171 | 3589 ft | 167 kts | 272° |
| 2026-05-06 22:28 | 36.07377 | -115.04548 | 3378 ft | 154 kts | 273° |
| 2026-05-06 22:28 | 36.07374 | -115.05845 | 3177 ft | 147 kts | 272° |
| 2026-05-06 22:29 | 36.07374 | -115.07083 | 2997 ft | 143 kts | 271° |
| 2026-05-06 22:29 | 36.07372 | -115.08324 | 2823 ft | 146 kts | 270° |
| 2026-05-06 22:29 | 36.07370 | -115.09554 | 2644 ft | 145 kts | 270° |
| 2026-05-06 22:29 | 36.07368 | -115.10808 | 2430 ft | 146 kts | 269° |
| 2026-05-06 22:30 | 36.07365 | -115.12063 | 2218 ft | 146 kts | 269° |
| 2026-05-06 22:30 | 36.07364 | -115.13299 | 2075 ft | 137 kts | 271° |
| 2026-05-06 22:30 | 36.07364 | -115.14262 | 2110 ft | 90 kts | 270° |
| 2026-05-06 22:30 | 36.07369 | -115.14721 | 2122 ft | 34 kts | 276° |
| 2026-05-06 22:31 | 36.07438 | -115.14976 | 2127 ft | 30 kts | 297° |
| 2026-05-06 22:31 | 36.07548 | -115.15140 | 2129 ft | 17 kts | 330° |
| 2026-05-06 22:31 | 36.07650 | -115.15201 | 2131 ft | 16 kts | 336° |
| 2026-05-06 22:31 | 36.07750 | -115.15257 | 2133 ft | 15 kts | 336° |
| 2026-05-06 22:32 | 36.07844 | -115.15311 | 2135 ft | 15 kts | 340° |
| 2026-05-06 22:32 | 36.07879 | -115.15253 | 2133 ft | 11 kts | 95° |
| 2026-05-06 22:32 | 36.07880 | -115.15156 | 2129 ft | 12 kts | 88° |
| 2026-05-06 22:32 | 36.07878 | -115.15041 | 2128 ft | 14 kts | 94° |
| 2026-05-06 22:33 | 36.07869 | -115.14914 | 2123 ft | 16 kts | 96° |
| 2026-05-06 22:33 | 36.07891 | -115.14819 | 2118 ft | 12 kts | 15° |
| 2026-05-06 22:33 | 36.07974 | -115.14849 | 2115 ft | 13 kts | 336° |
| 2026-05-06 22:33 | 36.08053 | -115.14893 | 2114 ft | 12 kts | 336° |
| 2026-05-06 22:34 | 36.08098 | -115.14880 | 2112 ft | 8 kts | 64° |
| 2026-05-06 22:34 | 36.08127 | -115.14812 | 2113 ft | 8 kts | 63° |
| 2026-05-06 22:34 | 36.08132 | -115.14799 | 2116 ft | 0 kts | 63° |